Blackfoot, Idaho
Current Conditions -  °F | °C
As of 2:53 PM on Sunday 25 Jan 2015 (Local Time) from KPIH Reporting Station
Broken Clouds Broken Clouds  
Wind Chill: 38°   Ceiling: 3200
Heat Index: 42°   Visibility: 10mi
Dew Point: 34°   Wind: 7mph
Humidity: 73%   Direction: 30°NNE
Pressure: 30.42"   Gusts: NA
Location:  43.19°N, 112.34°W
Report Text: KPIH 252153Z 03006KT 10SM BKN032 06/01 A3042 RMK AO2 SLP317 T00560011
Loading
Personal Weather Stations






























Interactive Weather Map New forecast layout! Learn more

10-Day Weather Forecast

Advertisements
Track Severe Weather on mobile